Time;durP1;ratioP1;P1;durP2;ratioP2;P2;SDS_P1;SDS_P2;PMS_P1;PMS_P2;Temp;Humidity;BMP_temperature;BMP_pressure;BME280_temperature;BME280_humidity;BME280_pressure;Samples;Min_cycle;Max_cycle;Signal;HPM_P1;HPM_P2
2023/05/25 00:01:42;;;;;;;9.82;3.63;;;;;;;9.42;100.00;102439.28;5071944;28;20074;-61
2023/05/25 00:04:15;;;;;;;9.65;3.90;;;;;;;9.39;100.00;102434.16;5072928;28;20083;-61
2023/05/25 00:06:46;;;;;;;10.32;4.20;;;;;;;9.38;100.00;102422.78;5072737;28;20497;-61
2023/05/25 00:09:15;;;;;;;12.75;4.53;;;;;;;9.33;100.00;102431.75;5072654;28;20040;-61
2023/05/25 00:11:44;;;;;;;9.80;4.00;;;;;;;9.45;100.00;102424.28;5071530;28;20048;-60
2023/05/25 00:14:13;;;;;;;10.73;4.25;;;;;;;9.48;100.00;102420.69;5071938;28;20132;-60
2023/05/25 00:16:41;;;;;;;12.20;4.03;;;;;;;9.41;100.00;102427.94;5072403;28;20090;-59
2023/05/25 00:19:10;;;;;;;12.18;4.05;;;;;;;9.41;100.00;102427.09;5072170;28;20068;-60
2023/05/25 00:21:38;;;;;;;11.70;4.35;;;;;;;9.46;100.00;102439.13;5071552;28;20131;-59
2023/05/25 00:24:07;;;;;;;11.02;3.97;;;;;;;9.44;100.00;102437.47;5072611;28;20861;-60
2023/05/25 00:26:35;;;;;;;9.35;3.90;;;;;;;9.36;100.00;102439.50;5069111;28;20044;-53
2023/05/25 00:29:06;;;;;;;10.82;4.13;;;;;;;9.35;100.00;102443.03;5070005;28;20534;-51
2023/05/25 00:31:35;;;;;;;10.68;3.78;;;;;;;9.33;100.00;102442.25;5051857;28;20052;-50
2023/05/25 00:34:04;;;;;;;12.82;4.00;;;;;;;9.32;100.00;102448.41;5070127;28;20044;-53
2023/05/25 00:36:32;;;;;;;11.93;4.47;;;;;;;9.33;100.00;102450.13;5068870;28;20056;-52
2023/05/25 00:39:00;;;;;;;13.23;4.15;;;;;;;9.29;100.00;102446.75;5069171;28;20530;-53
2023/05/25 00:41:28;;;;;;;9.38;4.07;;;;;;;9.21;100.00;102446.13;5067864;28;20056;-51
2023/05/25 00:43:56;;;;;;;9.57;3.70;;;;;;;9.19;100.00;102434.81;5051976;28;20044;-49
2023/05/25 00:46:26;;;;;;;10.45;3.92;;;;;;;9.18;100.00;102439.22;5069446;28;20055;-52
2023/05/25 00:48:55;;;;;;;11.18;4.03;;;;;;;9.15;100.00;102444.59;5069903;28;20105;-52
2023/05/25 00:51:25;;;;;;;9.02;3.50;;;;;;;9.13;100.00;102439.38;5069200;28;20040;-51
2023/05/25 00:53:53;;;;;;;13.10;4.22;;;;;;;9.14;100.00;102450.75;5069684;28;20534;-51
2023/05/25 00:56:27;;;;;;;13.38;4.78;;;;;;;9.17;100.00;102449.78;5067475;28;20040;-53
2023/05/25 00:58:57;;;;;;;12.38;4.35;;;;;;;9.15;100.00;102441.97;5069346;28;20044;-47
2023/05/25 01:01:32;;;;;;;11.98;4.47;;;;;;;9.17;100.00;102441.91;5069235;28;20045;-50
2023/05/25 01:04:06;;;;;;;12.05;3.92;;;;;;;9.11;100.00;102446.44;5051542;28;20060;-50
2023/05/25 01:06:38;;;;;;;9.43;4.43;;;;;;;8.99;100.00;102444.22;5069574;28;20036;-48
2023/05/25 01:09:11;;;;;;;11.82;4.68;;;;;;;8.93;100.00;102450.53;5070799;28;20539;-49
2023/05/25 01:11:42;;;;;;;14.52;4.82;;;;;;;8.91;100.00;102448.88;5070968;28;20056;-61
2023/05/25 01:14:11;;;;;;;11.05;4.07;;;;;;;8.92;100.00;102454.06;5070887;28;20507;-60
2023/05/25 01:16:42;;;;;;;13.98;5.18;;;;;;;9.05;100.00;102441.41;5071215;28;20491;-60
2023/05/25 01:19:11;;;;;;;10.93;4.47;;;;;;;8.90;100.00;102453.28;5072076;28;20089;-60
2023/05/25 01:21:46;;;;;;;11.38;4.50;;;;;;;8.88;100.00;102464.72;5071377;28;20102;-60
2023/05/25 01:24:22;;;;;;;12.25;4.28;;;;;;;8.84;100.00;102458.69;5070941;28;20567;-60
2023/05/25 01:26:56;;;;;;;13.43;4.93;;;;;;;8.84;100.00;102463.09;5071633;28;20048;-60
2023/05/25 01:29:26;;;;;;;12.80;5.18;;;;;;;8.83;100.00;102459.59;5070950;28;20385;-60
2023/05/25 01:31:55;;;;;;;11.48;4.63;;;;;;;8.92;100.00;102467.19;5071196;28;20040;-60
2023/05/25 01:34:25;;;;;;;9.70;4.43;;;;;;;8.80;100.00;102463.19;5070894;28;20040;-59
2023/05/25 01:36:57;;;;;;;12.00;4.67;;;;;;;8.77;100.00;102470.31;5072099;28;20098;-60
2023/05/25 01:39:25;;;;;;;12.50;4.63;;;;;;;8.78;100.00;102477.25;5072374;28;20056;-61
2023/05/25 01:41:53;;;;;;;11.23;4.47;;;;;;;8.76;100.00;102471.22;5072432;28;20048;-60
2023/05/25 01:44:22;;;;;;;12.68;5.00;;;;;;;8.74;100.00;102478.25;5071232;28;20461;-61
2023/05/25 01:46:56;;;;;;;12.32;5.00;;;;;;;8.71;100.00;102480.97;5070338;28;20569;-60
2023/05/25 01:49:28;;;;;;;13.57;5.05;;;;;;;8.71;100.00;102476.63;5071784;28;20369;-61
2023/05/25 01:52:07;;;;;;;12.32;4.30;;;;;;;8.71;100.00;102471.38;5076041;28;20040;-61
2023/05/25 01:54:40;;;;;;;8.65;4.35;;;;;;;8.71;100.00;102478.34;5057183;28;20083;-61
2023/05/25 01:57:12;;;;;;;13.50;4.55;;;;;;;8.75;100.00;102472.09;5054694;28;20071;-61
2023/05/25 01:59:43;;;;;;;11.43;4.57;;;;;;;8.68;100.00;102467.97;5074091;28;20106;-61
2023/05/25 02:02:14;;;;;;;11.70;4.35;;;;;;;8.67;100.00;102468.88;5073287;28;20056;-60
2023/05/25 02:04:42;;;;;;;11.02;4.93;;;;;;;8.63;100.00;102466.34;5074375;28;20071;-61
2023/05/25 02:07:12;;;;;;;12.00;4.63;;;;;;;8.68;100.00;102467.97;5058063;28;20041;-60
2023/05/25 02:09:40;;;;;;;10.95;4.53;;;;;;;8.76;100.00;102473.84;5075827;28;20049;-60
2023/05/25 02:12:09;;;;;;;11.85;5.03;;;;;;;8.63;100.00;102478.63;5075740;28;20052;-59
2023/05/25 02:14:37;;;;;;;11.50;4.45;;;;;;;8.66;100.00;102477.63;5073858;28;20074;-61
2023/05/25 02:17:06;;;;;;;12.43;4.93;;;;;;;8.55;100.00;102478.84;5073859;28;20387;-60
2023/05/25 02:19:35;;;;;;;11.05;4.65;;;;;;;8.51;100.00;102471.97;5073422;28;20072;-60
2023/05/25 02:22:03;;;;;;;13.77;5.25;;;;;;;8.56;100.00;102477.94;5073026;28;20140;-61
2023/05/25 02:24:33;;;;;;;12.45;5.05;;;;;;;8.56;100.00;102479.69;5072837;28;20044;-60
2023/05/25 02:27:02;;;;;;;9.30;4.13;;;;;;;8.51;100.00;102478.97;5072361;28;20052;-61
2023/05/25 02:29:30;;;;;;;12.45;4.30;;;;;;;8.66;100.00;102486.38;5073359;28;20040;-60
2023/05/25 02:31:58;;;;;;;12.93;4.55;;;;;;;8.49;100.00;102479.00;5075200;28;20048;-60
2023/05/25 02:34:27;;;;;;;10.70;4.43;;;;;;;8.47;100.00;102475.59;5075267;28;20106;-60
2023/05/25 02:36:55;;;;;;;11.75;4.32;;;;;;;8.43;100.00;102477.41;5057540;28;20052;-61
2023/05/25 02:39:25;;;;;;;13.02;4.90;;;;;;;8.36;100.00;102473.25;5073428;28;20044;-60
2023/05/25 02:41:54;;;;;;;10.52;4.05;;;;;;;8.45;100.00;102474.78;5072059;28;20456;-60
2023/05/25 02:44:23;;;;;;;9.95;4.15;;;;;;;8.40;100.00;102464.41;5075194;28;20094;-61
2023/05/25 02:46:51;;;;;;;12.10;5.13;;;;;;;8.23;100.00;102462.25;5057348;28;20377;-60
2023/05/25 02:49:19;;;;;;;10.15;4.72;;;;;;;8.18;100.00;102472.06;5074858;28;20106;-60
2023/05/25 02:51:47;;;;;;;9.48;4.10;;;;;;;8.25;100.00;102483.22;5075067;28;20503;-61
2023/05/25 02:54:15;;;;;;;11.00;4.43;;;;;;;8.20;100.00;102472.84;5075158;28;20052;-61
2023/05/25 02:56:44;;;;;;;9.57;4.13;;;;;;;8.19;100.00;102476.38;5074796;28;20456;-61
2023/05/25 02:59:14;;;;;;;8.63;4.05;;;;;;;8.16;100.00;102489.56;5074539;28;20051;-60
2023/05/25 03:01:42;;;;;;;9.00;4.38;;;;;;;8.08;100.00;102487.16;5073687;28;20043;-59
2023/05/25 03:04:10;;;;;;;9.32;4.38;;;;;;;8.03;100.00;102491.69;5074727;28;20075;-61
2023/05/25 03:06:39;;;;;;;11.95;4.80;;;;;;;7.98;100.00;102492.72;5072192;28;20114;-60
2023/05/25 03:09:08;;;;;;;10.57;4.75;;;;;;;7.91;100.00;102490.25;5073133;28;20047;-60
2023/05/25 03:11:36;;;;;;;9.13;5.00;;;;;;;7.95;100.00;102493.66;5072855;28;20060;-60
2023/05/25 03:14:05;;;;;;;10.65;4.97;;;;;;;7.90;100.00;102500.78;5073290;28;20499;-60
2023/05/25 03:16:35;;;;;;;13.95;6.55;;;;;;;7.90;100.00;102501.63;5073343;28;20063;-50
2023/05/25 03:19:04;;;;;;;14.98;4.95;;;;;;;7.81;100.00;102506.28;5073203;28;20044;-53
2023/05/25 03:21:33;;;;;;;13.88;4.68;;;;;;;7.84;100.00;102503.56;5071097;28;20550;-51
2023/05/25 03:24:04;;;;;;;13.73;5.65;;;;;;;7.85;100.00;102506.13;5070845;28;20045;-48
2023/05/25 03:26:33;;;;;;;11.57;5.30;;;;;;;7.84;100.00;102506.19;5069089;28;20539;-53
2023/05/25 03:29:01;;;;;;;12.48;5.80;;;;;;;7.79;100.00;102504.53;5054402;28;20148;-48
2023/05/25 03:31:29;;;;;;;10.43;4.90;;;;;;;7.84;100.00;102508.78;5073932;28;20048;-49
2023/05/25 03:33:59;;;;;;;10.07;4.97;;;;;;;7.89;100.00;102510.38;5055840;28;20056;-49
2023/05/25 03:36:27;;;;;;;10.35;5.43;;;;;;;7.86;100.00;102515.72;5073321;28;20428;-52
2023/05/25 03:38:55;;;;;;;14.55;6.00;;;;;;;7.84;100.00;102521.91;5070528;28;20040;-51
2023/05/25 03:41:23;;;;;;;14.95;5.30;;;;;;;7.79;100.00;102512.41;5071971;28;20500;-48
2023/05/25 03:43:52;;;;;;;13.00;5.47;;;;;;;7.76;100.00;102514.25;5073601;28;20124;-50
2023/05/25 03:46:20;;;;;;;9.68;5.22;;;;;;;7.77;100.00;102502.88;5071306;28;20056;-50
2023/05/25 03:48:51;;;;;;;12.82;5.72;;;;;;;7.87;100.00;102511.34;5070724;28;20123;-49
2023/05/25 03:51:20;;;;;;;13.40;5.88;;;;;;;7.80;100.00;102505.41;5069967;28;20501;-49
2023/05/25 03:53:48;;;;;;;13.05;5.38;;;;;;;7.79;100.00;102514.19;5071984;28;20095;-52
2023/05/25 03:56:16;;;;;;;13.15;5.57;;;;;;;7.75;100.00;102509.91;5051615;28;20048;-51
2023/05/25 03:58:45;;;;;;;13.52;6.40;;;;;;;7.74;100.00;102514.31;5070461;28;20050;-52
2023/05/25 04:01:13;;;;;;;17.92;6.40;;;;;;;7.74;100.00;102516.06;5072767;28;20049;-51
2023/05/25 04:03:41;;;;;;;13.82;6.15;;;;;;;7.74;100.00;102516.06;5070025;28;20068;-52
2023/05/25 04:06:10;;;;;;;13.30;5.88;;;;;;;7.74;100.00;102516.94;5071231;28;20048;-52
2023/05/25 04:08:40;;;;;;;15.75;6.40;;;;;;;7.77;100.00;102518.56;5072991;28;20055;-50
2023/05/25 04:11:09;;;;;;;11.82;6.30;;;;;;;7.77;100.00;102522.06;5068753;28;20131;-52
2023/05/25 04:13:39;;;;;;;15.07;6.35;;;;;;;7.80;100.00;102523.75;5070130;28;20052;-51
2023/05/25 04:16:08;;;;;;;13.95;6.13;;;;;;;7.83;100.00;102528.91;5070443;28;20072;-49
2023/05/25 04:18:37;;;;;;;14.85;6.10;;;;;;;7.85;100.00;102529.72;5070459;28;20048;-51
2023/05/25 04:21:05;;;;;;;17.52;6.00;;;;;;;7.96;100.00;102529.41;5069758;28;20060;-47
2023/05/25 04:23:33;;;;;;;12.07;6.05;;;;;;;7.90;100.00;102535.69;5054075;28;20062;-51
2023/05/25 04:26:09;;;;;;;13.55;6.45;;;;;;;7.87;100.00;102533.16;5068606;28;20541;-53
2023/05/25 04:28:39;;;;;;;12.65;5.57;;;;;;;7.94;100.00;102541.72;5071070;28;20123;-51
2023/05/25 04:31:08;;;;;;;19.42;7.20;;;;;;;7.95;100.00;102536.44;5072979;28;20044;-52
2023/05/25 04:33:37;;;;;;;10.82;5.72;;;;;;;7.97;100.00;102533.78;5072845;28;20399;-60
2023/05/25 04:36:09;;;;;;;18.13;6.30;;;;;;;8.01;100.00;102534.56;5072339;28;20036;-60
2023/05/25 04:38:37;;;;;;;17.63;6.40;;;;;;;8.04;100.00;102534.47;5072014;28;20056;-60
2023/05/25 04:41:08;;;;;;;16.40;6.13;;;;;;;7.97;100.00;102532.91;5071599;28;20053;-60
2023/05/25 04:43:36;;;;;;;16.10;6.88;;;;;;;8.01;100.00;102534.56;5071936;28;20051;-60
2023/05/25 04:46:06;;;;;;;15.50;6.97;;;;;;;8.00;100.00;102533.69;5054708;28;20048;-59
2023/05/25 04:48:37;;;;;;;14.55;7.03;;;;;;;8.00;100.00;102527.59;5072743;28;20048;-60
2023/05/25 04:51:06;;;;;;;18.90;6.65;;;;;;;8.03;100.00;102535.34;5071306;28;20503;-60
2023/05/25 04:53:35;;;;;;;18.80;7.43;;;;;;;8.08;100.00;102538.72;5053294;28;20070;-59
2023/05/25 04:56:03;;;;;;;16.83;6.60;;;;;;;8.10;100.00;102544.78;5071402;28;20481;-59
2023/05/25 04:58:33;;;;;;;16.15;6.38;;;;;;;8.20;100.00;102550.63;5071502;28;20051;-60
2023/05/25 05:01:01;;;;;;;17.58;6.55;;;;;;;8.23;100.00;102546.13;5071495;28;20045;-59
2023/05/25 05:03:29;;;;;;;17.13;6.78;;;;;;;8.27;100.00;102553.00;5050386;28;20061;-58
2023/05/25 05:05:57;;;;;;;18.23;6.63;;;;;;;8.32;100.00;102560.78;5051634;28;20049;-59
2023/05/25 05:08:26;;;;;;;18.67;7.32;;;;;;;8.36;100.00;102558.94;5051347;28;20049;-59
2023/05/25 05:10:54;;;;;;;18.08;6.45;;;;;;;8.41;100.00;102562.25;5050742;28;20484;-59
2023/05/25 05:13:25;;;;;;;17.17;6.75;;;;;;;8.48;100.00;102571.72;5051041;28;20064;-59
2023/05/25 05:15:55;;;;;;;26.60;7.35;;;;;;;8.53;100.00;102568.94;5051187;28;20127;-59
2023/05/25 05:18:23;;;;;;;17.63;7.50;;;;;;;8.61;100.00;102580.06;5050940;28;20049;-59
2023/05/25 05:20:52;;;;;;;19.83;7.95;;;;;;;8.67;100.00;102581.66;5051147;28;20516;-60
2023/05/25 05:23:20;;;;;;;15.93;7.47;;;;;;;8.75;100.00;102577.91;5051282;28;20496;-59
2023/05/25 05:25:48;;;;;;;17.77;7.22;;;;;;;8.88;100.00;102580.16;5051737;28;20048;-60
2023/05/25 05:28:16;;;;;;;18.63;7.75;;;;;;;8.94;100.00;102580.84;5054412;28;20411;-59
2023/05/25 05:30:46;;;;;;;18.83;7.70;;;;;;;9.04;100.00;102578.78;5054229;28;20044;-59
2023/05/25 05:33:15;;;;;;;16.15;7.60;;;;;;;9.12;100.00;102578.53;5054022;28;20075;-59
2023/05/25 05:35:47;;;;;;;19.85;7.85;;;;;;;9.24;100.00;102588.66;5055307;28;20052;-60
2023/05/25 05:38:15;;;;;;;20.60;7.78;;;;;;;9.35;100.00;102590.09;5054219;28;20041;-59
2023/05/25 05:40:43;;;;;;;17.67;7.93;;;;;;;9.52;100.00;102595.66;5052567;28;20435;-60
2023/05/25 05:43:13;;;;;;;15.93;7.43;;;;;;;9.61;100.00;102597.09;5053694;28;20496;-59
2023/05/25 05:45:44;;;;;;;19.30;7.75;;;;;;;9.73;100.00;102598.47;5056208;28;20361;-59
2023/05/25 05:48:12;;;;;;;17.08;7.30;;;;;;;9.81;100.00;102605.16;5056090;28;20061;-60
2023/05/25 05:50:42;;;;;;;13.88;6.68;;;;;;;9.86;100.00;102596.28;5054717;28;20049;-59
2023/05/25 05:53:10;;;;;;;17.33;7.25;;;;;;;10.00;100.00;102609.81;5053932;28;20053;-60
2023/05/25 05:55:38;;;;;;;14.63;7.38;;;;;;;10.09;100.00;102609.50;5053607;28;20051;-60
2023/05/25 05:58:06;;;;;;;24.27;8.40;;;;;;;10.16;100.00;102602.25;5054146;28;20500;-60
2023/05/25 06:00:34;;;;;;;13.20;7.18;;;;;;;10.27;100.00;102602.72;5052395;28;20428;-60
2023/05/25 06:03:02;;;;;;;18.08;7.63;;;;;;;10.37;100.00;102608.53;5065489;28;20567;-60
2023/05/25 06:05:31;;;;;;;19.08;7.55;;;;;;;10.54;100.00;102614.94;5073289;28;20490;-60
2023/05/25 06:08:03;;;;;;;17.88;6.93;;;;;;;10.69;100.00;102605.63;5073615;28;20495;-60
2023/05/25 06:10:35;;;;;;;17.60;7.88;;;;;;;10.73;100.00;102601.97;5074878;28;20468;-60
2023/05/25 06:13:06;;;;;;;17.50;7.18;;;;;;;10.82;100.00;102604.25;5073381;28;20051;-60
2023/05/25 06:15:35;;;;;;;15.32;6.72;;;;;;;11.04;100.00;102604.25;5075197;28;20127;-60
2023/05/25 06:18:03;;;;;;;17.88;7.30;;;;;;;11.18;100.00;102616.91;5074922;28;20052;-60
2023/05/25 06:20:31;;;;;;;20.52;7.45;;;;;;;11.37;100.00;102617.03;5073604;28;20040;-60
2023/05/25 06:23:00;;;;;;;19.15;6.38;;;;;;;11.47;100.00;102625.41;5075374;28;20789;-62
2023/05/25 06:25:29;;;;;;;14.20;6.55;;;;;;;11.63;100.00;102620.34;5074173;28;20045;-62
2023/05/25 06:27:58;;;;;;;14.15;5.82;;;;;;;11.74;100.00;102630.47;5074649;28;20052;-62
2023/05/25 06:30:26;;;;;;;16.13;6.60;;;;;;;11.89;100.00;102635.09;5074506;28;20491;-61
2023/05/25 06:32:54;;;;;;;16.85;5.65;;;;;;;12.00;100.00;102637.31;5073234;28;20041;-52
2023/05/25 06:35:22;;;;;;;14.25;5.95;;;;;;;12.10;100.00;102643.91;5072883;28;20444;-62
2023/05/25 06:37:51;;;;;;;15.48;5.63;;;;;;;12.19;100.00;102642.66;5072755;28;20044;-62
2023/05/25 06:40:19;;;;;;;11.50;5.00;;;;;;;12.26;100.00;102636.19;5074466;28;20040;-61
2023/05/25 06:42:48;;;;;;;12.45;6.05;;;;;;;12.39;100.00;102636.50;5074514;28;20048;-61
2023/05/25 06:45:16;;;;;;;14.07;5.75;;;;;;;12.57;100.00;102633.94;5074897;28;20063;-63
2023/05/25 06:47:45;;;;;;;16.42;6.45;;;;;;;12.71;100.00;102644.75;5075352;28;20047;-62
2023/05/25 06:50:17;;;;;;;15.13;5.80;;;;;;;12.79;100.00;102649.69;5074409;28;20132;-62
2023/05/25 06:52:45;;;;;;;17.52;6.78;;;;;;;12.96;100.00;102644.47;5074641;28;20040;-62
2023/05/25 06:55:13;;;;;;;16.63;6.18;;;;;;;13.05;100.00;102644.97;5071979;28;20055;-52
2023/05/25 06:57:42;;;;;;;17.33;6.50;;;;;;;13.19;100.00;102653.09;5072896;28;20041;-55
2023/05/25 07:00:14;;;;;;;13.57;5.32;;;;;;;13.30;100.00;102653.44;5070866;28;20067;-53
2023/05/25 07:02:43;;;;;;;15.57;5.03;;;;;;;13.31;100.00;102655.16;5071656;28;20048;-53
2023/05/25 07:05:11;;;;;;;14.75;4.22;;;;;;;13.45;100.00;102651.88;5071467;28;20106;-53
2023/05/25 07:07:39;;;;;;;10.68;4.75;;;;;;;13.47;100.00;102654.44;5071284;28;20742;-54
2023/05/25 07:10:09;;;;;;;12.73;4.20;;;;;;;13.49;100.00;102653.44;5071442;28;20049;-53
2023/05/25 07:12:40;;;;;;;13.57;5.22;;;;;;;13.49;100.00;102658.72;5069897;28;20048;-53
2023/05/25 07:15:10;;;;;;;14.90;5.60;;;;;;;13.61;100.00;102657.28;5071507;28;20528;-53
2023/05/25 07:17:39;;;;;;;18.55;6.15;;;;;;;13.67;100.00;102662.28;5071162;28;20052;-53
2023/05/25 07:20:09;;;;;;;16.38;5.40;;;;;;;13.75;100.00;102663.66;5070828;28;20040;-54
2023/05/25 07:22:37;;;;;;;15.82;5.45;;;;;;;13.84;100.00;102658.78;5070826;28;20080;-53
2023/05/25 07:25:06;;;;;;;16.40;5.50;;;;;;;13.93;100.00;102652.16;5071218;28;20046;-52
2023/05/25 07:27:35;;;;;;;12.55;5.07;;;;;;;14.04;100.00;102656.88;5069615;28;20053;-54
2023/05/25 07:30:06;;;;;;;9.95;4.78;;;;;;;14.18;100.00;102659.69;5071235;28;20434;-52
2023/05/25 07:32:34;;;;;;;9.98;4.25;;;;;;;14.11;100.00;102663.59;5070831;28;20040;-53
2023/05/25 07:35:05;;;;;;;14.10;4.82;;;;;;;14.19;100.00;102673.78;5052820;28;20141;-51
2023/05/25 07:37:33;;;;;;;16.02;5.63;;;;;;;14.35;100.00;102674.69;5070509;28;20064;-51
2023/05/25 07:40:02;;;;;;;14.45;5.20;;;;;;;14.41;100.00;102672.66;5052585;28;20048;-53
2023/05/25 07:42:33;;;;;;;12.90;5.05;;;;;;;14.45;100.00;102677.72;5068533;28;20048;-52
2023/05/25 07:45:01;;;;;;;16.48;5.28;;;;;;;14.52;100.00;102678.25;5071306;28;20127;-63
2023/05/25 07:47:29;;;;;;;14.75;4.78;;;;;;;14.67;100.00;102677.47;5054316;28;20446;-65
2023/05/25 07:49:57;;;;;;;15.50;4.95;;;;;;;14.75;100.00;102681.50;5073240;28;20051;-63
2023/05/25 07:52:30;;;;;;;16.52;5.22;;;;;;;14.88;100.00;102679.91;5073571;28;20499;-63
2023/05/25 07:54:58;;;;;;;11.57;4.28;;;;;;;14.99;100.00;102669.56;5072674;28;20049;-63
2023/05/25 07:57:26;;;;;;;12.07;4.63;;;;;;;15.09;100.00;102679.66;5072871;28;20059;-63
2023/05/25 07:59:56;;;;;;;16.85;5.20;;;;;;;15.18;100.00;102687.94;5073304;28;20044;-63
2023/05/25 08:02:24;;;;;;;15.40;5.25;;;;;;;15.38;100.00;102684.19;5072362;28;20052;-63
2023/05/25 08:04:53;;;;;;;11.57;4.50;;;;;;;15.42;100.00;102687.53;5072721;28;20488;-63
2023/05/25 08:07:23;;;;;;;13.57;4.30;;;;;;;15.60;100.00;102690.03;5071318;28;20056;-63
2023/05/25 08:09:53;;;;;;;13.98;4.82;;;;;;;15.82;100.00;102682.59;5073083;28;20131;-65
2023/05/25 08:12:21;;;;;;;13.60;4.40;;;;;;;15.95;100.00;102689.84;5071551;28;20041;-63
2023/05/25 08:15:10;;;;;;;11.88;4.30;;;;;;;16.13;100.00;102693.19;5072046;28;20048;-64
2023/05/25 08:17:38;;;;;;;14.05;4.50;;;;;;;16.18;100.00;102696.44;5072072;28;20147;-63
2023/05/25 08:20:09;;;;;;;13.18;4.20;;;;;;;16.31;100.00;102702.72;5072451;28;20048;-63
2023/05/25 08:22:37;;;;;;;11.13;4.03;;;;;;;16.22;100.00;102692.66;5073201;28;20127;-63
2023/05/25 08:25:07;;;;;;;12.05;4.03;;;;;;;16.36;100.00;102699.78;5072875;28;20040;-63
2023/05/25 08:27:36;;;;;;;13.23;4.05;;;;;;;16.52;100.00;102691.75;5072163;28;20048;-63
2023/05/25 08:30:05;;;;;;;15.38;4.20;;;;;;;16.50;100.00;102699.81;5073075;28;20052;-63
2023/05/25 08:32:33;;;;;;;14.55;4.72;;;;;;;16.42;100.00;102709.19;5072336;28;20042;-62
2023/05/25 08:35:03;;;;;;;10.93;4.15;;;;;;;16.52;100.00;102702.34;5054918;28;20071;-63
2023/05/25 08:37:32;;;;;;;15.80;4.88;;;;;;;16.53;100.00;102706.72;5072970;28;20053;-63
2023/05/25 08:40:01;;;;;;;11.60;3.72;;;;;;;16.58;100.00;102709.09;5054985;28;20498;-63
2023/05/25 08:42:33;;;;;;;11.45;3.92;;;;;;;16.58;100.00;102702.00;5070719;28;20094;-63
2023/05/25 08:45:01;;;;;;;16.05;4.38;;;;;;;16.61;100.00;102704.47;5071867;28;20544;-63
2023/05/25 08:47:32;;;;;;;10.48;3.85;;;;;;;16.59;100.00;102714.31;5070893;28;20083;-62
2023/05/25 08:50:03;;;;;;;13.15;4.30;;;;;;;16.41;100.00;102703.00;5071655;28;20041;-63
2023/05/25 08:52:33;;;;;;;12.73;3.92;;;;;;;16.47;100.00;102707.09;5070667;28;20484;-63
2023/05/25 08:55:06;;;;;;;11.30;3.90;;;;;;;16.59;100.00;102716.97;5071457;28;20071;-65
2023/05/25 08:57:46;;;;;;;13.57;4.43;;;;;;;16.62;100.00;102715.94;5069983;28;20049;-63
2023/05/25 09:00:17;;;;;;;13.88;4.47;;;;;;;16.62;100.00;102716.78;5069772;28;20499;-64
2023/05/25 09:02:50;;;;;;;;;;;;;;;16.81;100.00;102707.69;5071198;28;20404;-64
2023/05/25 09:05:19;;;;;;;13.07;4.50;;;;;;;17.09;100.00;102703.31;5071815;28;19981;-63
2023/05/25 09:07:48;;;;;;;14.52;4.95;;;;;;;17.39;100.00;102701.34;5070136;28;20155;-64
2023/05/25 09:10:16;;;;;;;13.70;4.85;;;;;;;17.63;100.00;102702.50;5071019;28;20518;-63
2023/05/25 09:12:47;;;;;;;12.50;4.25;;;;;;;17.74;100.00;102700.84;5070036;28;20403;-64
2023/05/25 09:15:16;;;;;;;14.43;4.47;;;;;;;17.86;100.00;102706.28;5070605;28;20082;-64
2023/05/25 09:17:45;;;;;;;12.68;4.85;;;;;;;17.66;100.00;102707.63;5070187;28;20435;-65
2023/05/25 09:20:13;;;;;;;14.63;4.63;;;;;;;17.58;100.00;102705.47;5052547;28;20512;-63
2023/05/25 09:22:45;;;;;;;15.73;4.10;;;;;;;17.47;100.00;102710.66;5051763;28;20068;-63
2023/05/25 09:25:17;;;;;;;11.95;4.18;;;;;;;17.64;100.00;102710.41;5051859;28;20049;-64
2023/05/25 09:27:46;;;;;;;11.83;4.57;;;;;;;17.83;100.00;102703.84;5068949;28;20048;-63
2023/05/25 09:30:15;;;;;;;16.48;5.03;;;;;;;17.88;100.00;102712.38;5070099;28;20052;-63
2023/05/25 09:32:43;;;;;;;12.68;4.40;;;;;;;17.68;100.00;102706.59;5069648;28;20059;-62
2023/05/25 09:35:14;;;;;;;8.82;3.55;;;;;;;17.86;100.00;102704.50;5070047;28;20072;-63
2023/05/25 09:37:43;;;;;;;11.32;4.30;;;;;;;17.95;100.00;102702.19;5070682;28;20041;-64
2023/05/25 09:40:12;;;;;;;13.40;3.78;;;;;;;17.95;100.00;102702.19;5070624;28;20407;-64
2023/05/25 09:42:42;;;;;;;13.18;4.03;;;;;;;17.94;100.00;102696.00;5070209;28;20048;-64
2023/05/25 09:45:12;;;;;;;10.93;4.07;;;;;;;17.68;100.00;102698.59;5070468;28;20653;-64
2023/05/25 09:47:40;;;;;;;13.77;4.85;;;;;;;17.69;100.00;102697.63;5071556;28;20575;-62
2023/05/25 09:50:11;;;;;;;13.85;4.90;;;;;;;17.86;100.00;102696.50;5069826;28;20047;-64
2023/05/25 09:52:39;;;;;;;13.10;4.32;;;;;;;18.27;100.00;102699.16;5071581;28;20037;-63
2023/05/25 09:55:11;;;;;;;13.13;4.50;;;;;;;18.61;100.00;102704.78;5053609;28;20102;-62
2023/05/25 09:57:43;;;;;;;13.43;4.68;;;;;;;18.60;100.00;102693.31;5069527;28;20055;-63
2023/05/25 10:00:15;;;;;;;10.63;3.97;;;;;;;18.72;100.00;102695.09;5069211;28;20079;-62
2023/05/25 10:02:43;;;;;;;11.87;4.37;;;;;;;18.62;100.00;102694.03;5069925;28;20414;-62
2023/05/25 10:05:12;;;;;;;11.25;4.30;;;;;;;18.79;100.00;102695.50;5070373;28;20471;-62
2023/05/25 10:07:42;;;;;;;13.88;4.30;;;;;;;18.70;100.00;102701.50;5069347;28;20495;-63
2023/05/25 10:10:14;;;;;;;9.48;4.38;;;;;;;18.52;100.00;102711.63;5070712;28;20049;-62
2023/05/25 10:12:43;;;;;;;11.60;4.22;;;;;;;18.49;100.00;102703.88;5073735;28;20044;-63
2023/05/25 10:15:14;;;;;;;11.55;3.92;;;;;;;18.40;100.00;102702.69;5074011;28;20058;-64
2023/05/25 10:17:45;;;;;;;10.90;3.55;;;;;;;18.22;100.00;102704.81;5073951;28;20884;-63
2023/05/25 10:20:14;;;;;;;10.00;3.53;;;;;;;18.48;100.00;102700.31;5074191;28;20041;-64
2023/05/25 10:22:48;;;;;;;8.98;3.83;;;;;;;19.00;100.00;102697.63;5074718;28;20044;-64
2023/05/25 10:25:23;;;;;;;8.88;3.25;;;;;;;19.15;100.00;102687.69;5073966;28;20072;-63
2023/05/25 10:27:57;;;;;;;8.15;3.83;;;;;;;19.52;100.00;102692.97;5074015;28;20049;-56
2023/05/25 10:30:28;;;;;;;9.80;3.15;;;;;;;19.69;100.00;102684.56;5071931;28;21031;-56
2023/05/25 10:32:57;;;;;;;9.80;3.22;;;;;;;19.63;97.35;102681.50;5072160;28;20044;-56
2023/05/25 10:35:29;;;;;;;9.80;3.47;;;;;;;19.65;100.00;102690.25;5071641;28;20055;-56
2023/05/25 10:38:06;;;;;;;8.30;2.90;;;;;;;19.63;100.00;102698.34;5071897;28;20076;-56
2023/05/25 10:40:35;;;;;;;9.10;4.25;;;;;;;19.46;99.91;102696.94;5071634;28;20091;-57
2023/05/25 10:43:05;;;;;;;9.20;3.78;;;;;;;19.43;100.00;102698.03;5071329;28;20399;-66
2023/05/25 10:45:37;;;;;;;8.00;3.00;;;;;;;19.36;100.00;102698.56;5071868;28;20055;-65
2023/05/25 10:48:05;;;;;;;7.75;3.33;;;;;;;19.37;97.79;102697.63;5072742;28;20114;-64
2023/05/25 10:50:35;;;;;;;8.48;3.30;;;;;;;19.35;100.00;102697.72;5072681;28;20044;-64
2023/05/25 10:53:06;;;;;;;6.88;3.00;;;;;;;19.62;97.66;102702.00;5054293;28;20083;-64
2023/05/25 10:55:48;;;;;;;7.88;3.08;;;;;;;19.30;97.57;102693.72;5072094;28;20514;-65
2023/05/25 10:58:21;;;;;;;9.10;3.13;;;;;;;19.36;96.11;102694.09;5071907;28;20052;-63
2023/05/25 11:00:59;;;;;;;9.02;3.10;;;;;;;19.31;95.17;102690.09;5054109;28;20143;-65
2023/05/25 11:03:57;;;;;;;7.47;3.20;;;;;;;19.37;94.18;102687.81;5071491;28;20080;-66
2023/05/25 11:06:57;;;;;;;9.73;3.15;;;;;;;19.29;94.10;102687.50;5071511;28;20060;-66
2023/05/25 11:09:27;;;;;;;9.30;3.17;;;;;;;18.98;91.89;102692.41;5070811;28;20052;-65
2023/05/25 11:12:02;;;;;;;7.90;3.13;;;;;;;19.06;93.32;102694.50;5070636;28;20052;-65
2023/05/25 11:14:32;;;;;;;9.68;2.92;;;;;;;19.26;88.06;102685.06;5071643;28;20365;-64
2023/05/25 11:17:10;;;;;;;9.80;2.97;;;;;;;19.32;86.52;102692.63;5073398;28;20060;-64
2023/05/25 11:19:41;;;;;;;7.70;3.00;;;;;;;19.16;88.76;102694.72;5072135;28;20148;-64
2023/05/25 11:22:16;;;;;;;7.30;2.90;;;;;;;18.92;91.26;102698.19;5071150;28;20060;-65
2023/05/25 11:24:45;;;;;;;10.70;3.40;;;;;;;18.70;92.16;102691.66;5070921;28;20542;-64
2023/05/25 11:27:13;;;;;;;8.88;2.60;;;;;;;18.86;89.44;102690.59;5070812;28;20515;-63